createdAt,value
2017-07-11T00:00:05.169Z,97.28
2017-07-11T00:00:46.056Z,96.66
2017-07-11T00:01:26.947Z,97.04
2017-07-11T00:02:07.838Z,97.14
2017-07-11T00:02:48.740Z,97.91
2017-07-11T00:03:29.630Z,97.91
2017-07-11T00:04:10.533Z,97.42
2017-07-11T00:04:51.426Z,97.52
2017-07-11T00:05:32.317Z,97.33
2017-07-11T00:06:13.209Z,97.81
2017-07-11T00:06:54.098Z,97.81
2017-07-11T00:07:34.989Z,97.91
2017-07-11T00:08:15.892Z,97.71
2017-07-11T00:08:56.774Z,97.91
2017-07-11T00:09:37.658Z,97.71
2017-07-11T00:10:18.567Z,98
2017-07-11T00:10:59.452Z,98
2017-07-11T00:11:40.341Z,98
2017-07-11T00:12:21.231Z,97.81
2017-07-11T00:13:02.128Z,97.81
2017-07-11T00:13:43.017Z,96.75
2017-07-11T00:14:23.921Z,97.24
2017-07-11T00:15:04.808Z,97.33
2017-07-11T00:15:45.690Z,97.95
2017-07-11T00:16:26.598Z,97.61
2017-07-11T00:17:07.483Z,98
2017-07-11T00:17:48.368Z,97.81
2017-07-11T00:18:29.262Z,97.61
2017-07-11T00:19:10.155Z,98
2017-07-11T00:19:51.080Z,97.81
2017-07-11T00:20:31.937Z,97.81
2017-07-11T00:21:12.830Z,97.14
2017-07-11T00:21:53.717Z,97.61
2017-07-11T00:22:34.612Z,97.81
2017-07-11T00:23:15.511Z,98
2017-07-11T00:23:56.404Z,97.91
2017-07-11T00:24:37.289Z,97.52
2017-07-11T00:25:18.184Z,97.52
2017-07-11T00:25:59.073Z,96.89
2017-07-11T00:26:39.976Z,97.28
2017-07-11T00:27:20.863Z,97.19
2017-07-11T00:28:01.747Z,97.14
2017-07-11T00:28:42.640Z,97.81
2017-07-11T00:29:23.534Z,98
2017-07-11T00:30:04.423Z,97.91
2017-07-11T00:30:45.316Z,97.81
2017-07-11T00:31:26.209Z,98.1
2017-07-11T00:32:07.096Z,97.28
2017-07-11T00:32:47.986Z,97.09
2017-07-11T00:33:28.870Z,97.86
2017-07-11T00:34:09.755Z,97.19
2017-07-11T00:34:50.636Z,97.76
2017-07-11T00:35:31.535Z,97.76
2017-07-11T00:36:12.422Z,97.95
2017-07-11T00:36:53.314Z,97.66
2017-07-11T00:37:34.210Z,97.95
2017-07-11T00:38:15.097Z,98.05
2017-07-11T00:38:55.985Z,97.76
2017-07-11T00:39:36.879Z,97.76
2017-07-11T00:40:17.775Z,97.95
2017-07-11T00:40:58.658Z,97.56
2017-07-11T00:41:39.547Z,97.56
2017-07-11T00:42:20.433Z,97.66
2017-07-11T00:43:01.336Z,97.86
2017-07-11T00:43:42.219Z,97.76
2017-07-11T00:44:23.110Z,97.56
2017-07-11T00:45:03.999Z,98.33
2017-07-11T00:45:44.940Z,98.05
2017-07-11T00:46:25.829Z,97.66
2017-07-11T00:47:06.780Z,98.33
2017-07-11T00:47:47.619Z,98.43
2017-07-11T00:48:28.510Z,98.24
2017-07-11T00:49:09.397Z,98.19
2017-07-11T00:49:50.295Z,98.1
2017-07-11T00:50:31.192Z,98.33
2017-07-11T00:51:12.064Z,97.95
2017-07-11T00:51:52.950Z,98.43
2017-07-11T00:52:33.832Z,98.14
2017-07-11T00:53:14.706Z,98.58
2017-07-11T00:53:55.604Z,97.66
2017-07-11T00:54:36.508Z,97.76
2017-07-11T00:55:17.396Z,97.95
2017-07-11T00:55:58.297Z,97.86
2017-07-11T00:56:39.186Z,97.56
2017-07-11T00:57:20.098Z,97.71
2017-07-11T00:58:00.994Z,97.76
2017-07-11T00:58:41.931Z,97.66
2017-07-11T00:59:22.808Z,98.24
2017-07-11T01:00:03.686Z,98.43
2017-07-11T01:00:44.582Z,98.33
2017-07-11T01:01:25.474Z,97.38
2017-07-11T01:02:06.362Z,98.05
2017-07-11T01:02:47.242Z,98.14
2017-07-11T01:03:28.124Z,97.56
2017-07-11T01:04:09.004Z,97.95
2017-07-11T01:04:49.893Z,98.05
2017-07-11T01:05:30.806Z,98.24
2017-07-11T01:06:11.681Z,97.09
2017-07-11T01:06:52.567Z,97.66
2017-07-11T01:07:33.457Z,97.56
2017-07-11T01:08:14.353Z,97.95
2017-07-11T01:08:55.228Z,97.66
2017-07-11T01:09:36.108Z,98.05
2017-07-11T01:10:17.008Z,98.24
2017-07-11T01:10:57.895Z,97.09
2017-07-11T01:11:38.781Z,97.52
2017-07-11T01:12:19.688Z,97.66
2017-07-11T01:13:00.584Z,98.05
2017-07-11T01:13:41.474Z,97.71
2017-07-11T01:14:22.358Z,97.76
2017-07-11T01:15:03.248Z,97.38
2017-07-11T01:15:44.142Z,98.33
2017-07-11T01:16:25.037Z,97.56
2017-07-11T01:17:05.919Z,97.52
2017-07-11T01:17:46.811Z,98.24
2017-07-11T01:18:27.730Z,98.43
2017-07-11T01:19:08.616Z,97.47
2017-07-11T01:19:49.504Z,98.14
2017-07-11T01:20:30.397Z,97.66
2017-07-11T01:21:11.290Z,97.76
2017-07-11T01:21:52.205Z,97.66
2017-07-11T01:22:33.130Z,97.66
2017-07-11T01:23:13.979Z,97.86
2017-07-11T01:23:54.873Z,98.24
2017-07-11T01:24:35.773Z,97.86
2017-07-11T01:25:16.673Z,97.66
2017-07-11T01:25:57.550Z,97.38
2017-07-11T01:26:38.438Z,98.33
2017-07-11T01:27:19.349Z,97.38
2017-07-11T01:28:00.260Z,97.95
2017-07-11T01:28:41.142Z,97.95
2017-07-11T01:29:22.038Z,97.86
2017-07-11T01:30:02.930Z,97.76
2017-07-11T01:30:43.807Z,97.56
2017-07-11T01:31:24.715Z,97.47
2017-07-11T01:32:05.613Z,97.66
2017-07-11T01:32:46.500Z,98.53
2017-07-11T01:33:27.393Z,97.76
2017-07-11T01:34:08.280Z,98.24
2017-07-11T01:34:49.168Z,97.66
2017-07-11T01:35:30.050Z,98.24
2017-07-11T01:36:10.949Z,97.81
2017-07-11T01:36:51.841Z,97.61
2017-07-11T01:37:32.782Z,98.24
2017-07-11T01:38:13.627Z,97.19
2017-07-11T01:38:54.511Z,97.56
2017-07-11T01:39:35.407Z,97.56
2017-07-11T01:40:16.299Z,97.52
2017-07-11T01:40:57.185Z,97.52
2017-07-11T01:41:38.080Z,97.66
2017-07-11T01:42:18.973Z,97.56
2017-07-11T01:42:59.865Z,98.1
2017-07-11T01:43:40.750Z,98.1
2017-07-11T01:44:21.631Z,98.19
2017-07-11T01:45:02.514Z,98.19
2017-07-11T01:45:43.406Z,98.19
2017-07-11T01:46:24.309Z,98.19
2017-07-11T01:47:05.195Z,98.19
2017-07-11T01:47:46.080Z,98.28
2017-07-11T01:48:26.981Z,98
2017-07-11T01:49:07.861Z,97.52
2017-07-11T01:49:48.744Z,97.71
2017-07-11T01:50:29.633Z,98.38
2017-07-11T01:51:10.524Z,97.33
2017-07-11T01:51:51.406Z,96.94
2017-07-11T01:52:32.304Z,97.42
2017-07-11T01:53:13.194Z,97.61
2017-07-11T01:53:54.082Z,98.48
2017-07-11T01:54:34.981Z,97.52
2017-07-11T01:55:15.874Z,98
2017-07-11T01:55:56.766Z,97.23
2017-07-11T01:56:37.672Z,98.24
2017-07-11T01:57:18.561Z,98.28
2017-07-11T01:57:59.444Z,98.19
2017-07-11T01:58:40.338Z,97.33
2017-07-11T01:59:21.227Z,97.56
2017-07-11T02:00:02.112Z,98.1
2017-07-11T02:00:42.989Z,97.71
2017-07-11T02:01:23.884Z,97.76
2017-07-11T02:02:04.789Z,97.95
2017-07-11T02:02:45.684Z,97.56
2017-07-11T02:03:26.570Z,98.28
2017-07-11T02:04:07.467Z,97.85
2017-07-11T02:04:48.345Z,98.33
2017-07-11T02:05:29.246Z,98.33
2017-07-11T02:06:10.132Z,98.57
2017-07-11T02:06:51.025Z,97.9
2017-07-11T02:07:31.936Z,98.33
2017-07-11T02:08:12.829Z,97.81
2017-07-11T02:08:53.723Z,98.14
2017-07-11T02:09:34.610Z,97.42
2017-07-11T02:10:15.497Z,97.38
2017-07-11T02:10:56.393Z,97.28
2017-07-11T02:11:37.277Z,98.33
2017-07-11T02:12:18.166Z,98.52
2017-07-11T02:12:59.063Z,98.48
2017-07-11T02:13:39.945Z,98.57
2017-07-11T02:14:20.831Z,98.28
2017-07-11T02:15:01.698Z,98.28
2017-07-11T02:15:42.570Z,98.05
2017-07-11T02:16:23.455Z,98.14
2017-07-11T02:17:04.346Z,98.33
2017-07-11T02:17:45.246Z,98.14
2017-07-11T02:18:26.135Z,98.24
2017-07-11T02:19:07.015Z,98.05
2017-07-11T02:19:47.916Z,98.72
2017-07-11T02:20:28.810Z,98.33
2017-07-11T02:21:09.697Z,98.33
2017-07-11T02:21:50.581Z,98.52
2017-07-11T02:22:31.481Z,98.24
2017-07-11T02:23:12.374Z,98.72
2017-07-11T02:23:53.262Z,98.24
2017-07-11T02:24:34.140Z,98.62
2017-07-11T02:25:15.021Z,98.62
2017-07-11T02:25:55.917Z,98.14
2017-07-11T02:26:36.813Z,99.1
2017-07-11T02:27:17.720Z,98.72
2017-07-11T02:27:58.592Z,98.43
2017-07-11T02:28:39.487Z,98.43
2017-07-11T02:29:20.374Z,98.43
2017-07-11T02:30:01.274Z,98.43
2017-07-11T02:30:42.190Z,98.43
2017-07-11T02:31:23.093Z,98.05
2017-07-11T02:32:03.971Z,98.24
2017-07-11T02:32:44.862Z,98.14
2017-07-11T02:33:25.763Z,97.95
2017-07-11T02:34:06.660Z,98.72
2017-07-11T02:34:47.544Z,98.52
2017-07-11T02:35:28.446Z,98.91
2017-07-11T02:36:09.340Z,98.33
2017-07-11T02:36:50.230Z,98.33
2017-07-11T02:37:31.127Z,98.24
2017-07-11T02:38:11.997Z,98.52
2017-07-11T02:38:52.886Z,98.24
2017-07-11T02:39:33.779Z,98.14
2017-07-11T02:40:14.680Z,98.14
2017-07-11T02:40:55.566Z,98.24
2017-07-11T02:41:36.454Z,98.43
2017-07-11T02:42:17.344Z,98.72
2017-07-11T02:42:58.262Z,98.05
2017-07-11T02:43:39.153Z,98.24
2017-07-11T02:44:20.037Z,98.62
2017-07-11T02:45:00.920Z,98.52
2017-07-11T02:45:41.814Z,98.72
2017-07-11T02:46:22.704Z,98.33
2017-07-11T02:47:03.589Z,98.81
2017-07-11T02:47:44.480Z,98.52
2017-07-11T02:48:25.370Z,98.33
2017-07-11T02:49:06.249Z,98.28
2017-07-11T02:49:47.149Z,98.72
2017-07-11T02:50:28.039Z,98.52
2017-07-11T02:51:08.921Z,98.52
2017-07-11T02:51:49.815Z,98.52
2017-07-11T02:52:30.715Z,98.91
2017-07-11T02:53:11.618Z,98.38
2017-07-11T02:53:52.518Z,99.05
2017-07-11T02:54:33.411Z,99.29
2017-07-11T02:55:14.295Z,98.72
2017-07-11T02:55:55.187Z,98.96
2017-07-11T02:56:36.076Z,99.05
2017-07-11T02:57:16.965Z,99.48
2017-07-11T02:57:57.856Z,98.57
2017-07-11T02:58:38.733Z,98.67
2017-07-11T02:59:19.620Z,99.15
2017-07-11T03:00:00.500Z,99.24
2017-07-11T03:00:41.402Z,98.67
2017-07-11T03:01:22.275Z,99.24
2017-07-11T03:02:03.234Z,98.57
2017-07-11T03:02:44.060Z,98.38
2017-07-11T03:03:24.978Z,99.24
2017-07-11T03:04:05.883Z,98.76
2017-07-11T03:04:46.772Z,98.67
2017-07-11T03:05:27.657Z,99.05
2017-07-11T03:06:08.557Z,99.05
2017-07-11T03:06:49.450Z,98.47
2017-07-11T03:07:30.327Z,98.28
2017-07-11T03:08:11.215Z,98.67
2017-07-11T03:08:52.115Z,98.57
2017-07-11T03:09:33.009Z,99.15
2017-07-11T03:10:13.912Z,98.28
2017-07-11T03:10:54.821Z,98.67
2017-07-11T03:11:35.706Z,98.47
2017-07-11T03:12:16.612Z,98.96
2017-07-11T03:12:57.498Z,99.24
2017-07-11T03:13:38.372Z,98.96
2017-07-11T03:14:19.264Z,98.76
2017-07-11T03:15:00.155Z,99.34
2017-07-11T03:15:41.056Z,98.96
2017-07-11T03:16:21.939Z,98.96
2017-07-11T03:17:02.821Z,99.34
2017-07-11T03:17:43.723Z,99.24
2017-07-11T03:18:24.616Z,99.15
2017-07-11T03:19:05.505Z,99.15
2017-07-11T03:19:46.396Z,99.34
2017-07-11T03:20:27.269Z,99.15
2017-07-11T03:21:08.160Z,99.15
2017-07-11T03:21:49.053Z,98.96
2017-07-11T03:22:29.944Z,99.34
2017-07-11T03:23:10.822Z,99.15
2017-07-11T03:23:51.706Z,99.24
2017-07-11T03:24:32.597Z,99.24
2017-07-11T03:25:13.481Z,99.19
2017-07-11T03:25:54.381Z,99.15
2017-07-11T03:26:35.264Z,99.24
2017-07-11T03:27:16.159Z,99.19
2017-07-11T03:27:57.041Z,98.62
2017-07-11T03:28:37.938Z,99.38
2017-07-11T03:29:18.818Z,99.1
2017-07-11T03:29:59.700Z,99.1
2017-07-11T03:30:40.601Z,98.91
2017-07-11T03:31:21.495Z,99.1
2017-07-11T03:32:02.384Z,98.24
2017-07-11T03:32:43.274Z,98.81
2017-07-11T03:33:24.145Z,98.91
2017-07-11T03:34:05.027Z,99.1
2017-07-11T03:34:45.912Z,98.81
2017-07-11T03:35:26.794Z,99.1
2017-07-11T03:36:07.673Z,99.1
2017-07-11T03:36:48.586Z,99.29
2017-07-11T03:37:29.477Z,99.19
2017-07-11T03:38:10.367Z,99.48
2017-07-11T03:38:51.249Z,98.91
2017-07-11T03:39:32.137Z,99.1
2017-07-11T03:40:13.024Z,99.19
2017-07-11T03:40:53.916Z,99.1
2017-07-11T03:41:34.811Z,98.91
2017-07-11T03:42:15.719Z,98.91
2017-07-11T03:42:56.593Z,99
2017-07-11T03:43:37.500Z,99.19
2017-07-11T03:44:18.389Z,99.48
2017-07-11T03:44:59.275Z,99
2017-07-11T03:45:40.176Z,99.29
2017-07-11T03:46:21.072Z,99.38
2017-07-11T03:47:01.950Z,99.19
2017-07-11T03:47:42.843Z,99.19
2017-07-11T03:48:23.740Z,99.96
2017-07-11T03:49:04.624Z,99
2017-07-11T03:49:45.513Z,99.29
2017-07-11T03:50:26.390Z,99.29
2017-07-11T03:51:07.279Z,99.67
2017-07-11T03:51:48.173Z,99.1
2017-07-11T03:52:29.060Z,99.1
2017-07-11T03:53:09.952Z,99.58
2017-07-11T03:53:50.834Z,99.1
2017-07-11T03:54:31.739Z,99
2017-07-11T03:55:12.622Z,98.91
2017-07-11T03:55:53.519Z,99.48
2017-07-11T03:56:34.399Z,99.29
2017-07-11T03:57:15.288Z,99.58
2017-07-11T03:57:56.168Z,99.1
2017-07-11T03:58:37.060Z,99.29
2017-07-11T03:59:17.948Z,99.1
2017-07-11T03:59:58.833Z,99
2017-07-11T04:00:39.707Z,99
2017-07-11T04:01:20.598Z,99.67
2017-07-11T04:02:01.481Z,99.1
2017-07-11T04:02:42.368Z,99.1
2017-07-11T04:03:23.273Z,99.1
2017-07-11T04:04:04.159Z,99.29
2017-07-11T04:04:45.038Z,99
2017-07-11T04:05:25.933Z,98.91
2017-07-11T04:06:06.821Z,99
2017-07-11T04:06:47.702Z,99.29
2017-07-11T04:07:28.579Z,99.19
2017-07-11T04:08:09.464Z,99.38
2017-07-11T04:08:50.378Z,99.1
2017-07-11T04:09:31.247Z,99.34
2017-07-11T04:10:12.117Z,99
2017-07-11T04:10:53.019Z,99.29
2017-07-11T04:11:33.904Z,99
2017-07-11T04:12:14.788Z,99.38
2017-07-11T04:12:55.668Z,99
2017-07-11T04:13:36.575Z,99.87
2017-07-11T04:14:17.469Z,99.29
2017-07-11T04:14:58.362Z,99.29
2017-07-11T04:15:39.250Z,99.1
2017-07-11T04:16:20.140Z,99.38
2017-07-11T04:17:01.044Z,99.24
2017-07-11T04:17:41.941Z,99.43
2017-07-11T04:18:22.834Z,99.34
2017-07-11T04:19:03.730Z,98.96
2017-07-11T04:19:44.612Z,99.34
2017-07-11T04:20:25.504Z,99.15
2017-07-11T04:21:06.386Z,98.86
2017-07-11T04:21:47.318Z,99.43
2017-07-11T04:22:28.214Z,99.34
2017-07-11T04:23:09.104Z,99.24
2017-07-11T04:23:49.984Z,99
2017-07-11T04:24:30.888Z,99.34
2017-07-11T04:25:11.772Z,98.81
2017-07-11T04:25:52.660Z,99.05
2017-07-11T04:26:33.561Z,99.34
2017-07-11T04:27:14.442Z,99.53
2017-07-11T04:27:55.389Z,99.24
2017-07-11T04:28:36.283Z,99.24
2017-07-11T04:29:17.169Z,99.05
2017-07-11T04:29:58.057Z,98.86
2017-07-11T04:30:38.948Z,98.76
2017-07-11T04:31:19.844Z,99.15
2017-07-11T04:32:00.733Z,98.86
2017-07-11T04:32:41.630Z,99.43
2017-07-11T04:33:22.525Z,99.15
2017-07-11T04:34:03.407Z,99.72
2017-07-11T04:34:44.300Z,99.15
2017-07-11T04:35:25.195Z,98.76
2017-07-11T04:36:06.087Z,99.53
2017-07-11T04:36:46.989Z,98.96
2017-07-11T04:37:27.926Z,98.67
2017-07-11T04:38:08.822Z,99.43
2017-07-11T04:38:49.719Z,98.67
2017-07-11T04:39:30.627Z,98.96
2017-07-11T04:40:11.521Z,98.67
2017-07-11T04:40:52.410Z,99.1
2017-07-11T04:41:33.301Z,98.71
2017-07-11T04:42:14.188Z,98.91
2017-07-11T04:42:55.069Z,99.34
2017-07-11T04:43:35.956Z,99.05
2017-07-11T04:44:16.854Z,98.76
2017-07-11T04:44:57.748Z,99.43
2017-07-11T04:45:38.630Z,98.86
2017-07-11T04:46:19.513Z,99.34
2017-07-11T04:47:00.403Z,99.34
2017-07-11T04:47:41.304Z,98.96
2017-07-11T04:48:22.188Z,98.67
2017-07-11T04:49:03.079Z,98.67
2017-07-11T04:49:43.977Z,99.15
2017-07-11T04:50:24.868Z,99.05
2017-07-11T04:51:05.755Z,99.24
2017-07-11T04:51:46.651Z,99.15
2017-07-11T04:52:27.525Z,99.05
2017-07-11T04:53:08.420Z,98.81
2017-07-11T04:53:49.349Z,99.34
2017-07-11T04:54:30.242Z,99.63
2017-07-11T04:55:11.138Z,99.34
2017-07-11T04:55:52.029Z,99.05
2017-07-11T04:56:32.917Z,98.86
2017-07-11T04:57:13.808Z,99.24
2017-07-11T04:57:54.696Z,99.39
2017-07-11T04:58:35.583Z,99.39
2017-07-11T04:59:16.470Z,98.76
2017-07-11T04:59:57.373Z,99.05
2017-07-11T05:00:38.266Z,99.1
2017-07-11T05:01:19.153Z,99.01
2017-07-11T05:02:00.046Z,99.29
2017-07-11T05:02:40.942Z,98.33
2017-07-11T05:03:21.835Z,99.1
2017-07-11T05:04:02.769Z,98.52
2017-07-11T05:04:43.614Z,98.43
2017-07-11T05:05:24.500Z,98.33
2017-07-11T05:06:05.385Z,98.81
2017-07-11T05:06:46.301Z,98.67
2017-07-11T05:07:27.192Z,98.67
2017-07-11T05:08:08.088Z,98.72
2017-07-11T05:08:48.975Z,98.72
2017-07-11T05:09:29.879Z,98.52
2017-07-11T05:10:10.771Z,98.81
2017-07-11T05:10:51.667Z,98.72
2017-07-11T05:11:32.557Z,98.72
2017-07-11T05:12:13.444Z,98.96
2017-07-11T05:12:54.347Z,99.05
2017-07-11T05:13:35.239Z,97.85
2017-07-11T05:14:16.136Z,98.77
2017-07-11T05:14:57.015Z,98.67
2017-07-11T05:15:37.920Z,98.77
2017-07-11T05:16:18.810Z,98.77
2017-07-11T05:16:59.729Z,98.72
2017-07-11T05:17:40.614Z,98.77
2017-07-11T05:18:21.511Z,98
2017-07-11T05:19:02.407Z,98
2017-07-11T05:19:43.302Z,98.19
2017-07-11T05:20:24.209Z,97.71
2017-07-11T05:21:05.088Z,98
2017-07-11T05:21:45.970Z,97.28
2017-07-11T05:22:26.866Z,97.56
2017-07-11T05:23:07.762Z,97.23
2017-07-11T05:23:48.653Z,97.9
2017-07-11T05:24:29.541Z,98.1
2017-07-11T05:25:10.438Z,98
2017-07-11T05:25:51.324Z,97.81
2017-07-11T05:26:32.214Z,98
2017-07-11T05:27:13.106Z,98
2017-07-11T05:27:53.989Z,98.28
2017-07-11T05:28:34.895Z,97.9
2017-07-11T05:29:15.789Z,98.19
2017-07-11T05:29:56.675Z,97.81
2017-07-11T05:30:37.565Z,98.1
2017-07-11T05:31:18.458Z,98
2017-07-11T05:31:59.348Z,97.9
2017-07-11T05:32:40.242Z,97.33
2017-07-11T05:33:21.134Z,97.28
2017-07-11T05:34:02.022Z,97.38
2017-07-11T05:34:42.912Z,97.56
2017-07-11T05:35:23.799Z,97.52
2017-07-11T05:36:04.686Z,97.52
2017-07-11T05:36:45.572Z,97.23
2017-07-11T05:37:26.467Z,97.81
2017-07-11T05:38:07.362Z,98
2017-07-11T05:38:48.254Z,98.38
2017-07-11T05:39:29.145Z,97.9
2017-07-11T05:40:10.038Z,97.9
2017-07-11T05:40:50.936Z,97.9
2017-07-11T05:41:31.821Z,97.04
2017-07-11T05:42:12.720Z,98.19
2017-07-11T05:42:53.618Z,97.42
2017-07-11T05:43:34.515Z,97.33
2017-07-11T05:44:15.400Z,97.14
2017-07-11T05:44:56.292Z,97.85
2017-07-11T05:45:37.188Z,98.05
2017-07-11T05:46:18.082Z,98.14
2017-07-11T05:46:58.967Z,97.76
2017-07-11T05:47:39.866Z,97.95
2017-07-11T05:48:20.758Z,97.81
2017-07-11T05:49:01.642Z,98.28
2017-07-11T05:49:42.529Z,98
2017-07-11T05:50:23.435Z,98.1
2017-07-11T05:51:04.324Z,97.76
2017-07-11T05:51:45.224Z,97.14
2017-07-11T05:52:26.112Z,98.28
2017-07-11T05:53:07.000Z,97.61
2017-07-11T05:53:47.898Z,98.05
2017-07-11T05:54:28.784Z,98.86
2017-07-11T05:55:09.663Z,98.48
2017-07-11T05:55:50.560Z,98.38
2017-07-11T05:56:31.460Z,98.1
2017-07-11T05:57:12.393Z,97.81
2017-07-11T05:57:53.281Z,97.76
2017-07-11T05:58:34.161Z,97.14
2017-07-11T05:59:15.051Z,97.09
2017-07-11T05:59:55.940Z,97.04
2017-07-11T06:00:36.833Z,97.09
2017-07-11T06:01:17.723Z,97.23
2017-07-11T06:01:58.615Z,96.94
2017-07-11T06:02:39.520Z,97.52
2017-07-11T06:03:20.418Z,97.56
2017-07-11T06:04:01.307Z,96.61
2017-07-11T06:04:42.209Z,96.42
2017-07-11T06:05:23.108Z,95.89
2017-07-11T06:06:04.018Z,96.27
2017-07-11T06:06:44.911Z,96.13
2017-07-11T06:07:25.800Z,96.22
2017-07-11T06:08:06.693Z,95.46
2017-07-11T06:08:47.568Z,95.84
2017-07-11T06:09:28.459Z,96.51
2017-07-11T06:10:09.356Z,96.42
2017-07-11T06:10:50.243Z,96.32
2017-07-11T06:11:31.153Z,96.22
2017-07-11T06:12:12.056Z,95.89
2017-07-11T06:12:52.939Z,96.22
2017-07-11T06:13:33.855Z,96.22
2017-07-11T06:14:14.776Z,96.56
2017-07-11T06:14:55.680Z,96.85
2017-07-11T06:15:36.575Z,96.18
2017-07-11T06:16:17.488Z,96.56
2017-07-11T06:16:58.394Z,96.75
2017-07-11T06:17:39.297Z,96.42
2017-07-11T06:18:20.217Z,96.56
2017-07-11T06:19:01.082Z,96.61
2017-07-11T06:19:41.991Z,95.94
2017-07-11T06:20:22.872Z,95.55
2017-07-11T06:21:03.760Z,95.17
2017-07-11T06:21:44.659Z,95.17
2017-07-11T06:22:25.549Z,95.55
2017-07-11T06:23:06.456Z,95.55
2017-07-11T06:23:47.342Z,96.13
2017-07-11T06:24:28.223Z,95.65
2017-07-11T06:25:09.147Z,95.75
2017-07-11T06:25:50.039Z,95.55
2017-07-11T06:26:30.938Z,95.31
2017-07-11T06:27:11.833Z,94.74
2017-07-11T06:27:52.721Z,94.31
2017-07-11T06:28:33.608Z,94.98
2017-07-11T06:29:14.508Z,95.26
2017-07-11T06:29:55.403Z,95.17
2017-07-11T06:30:36.301Z,94.59
2017-07-11T06:31:17.203Z,94.64
2017-07-11T06:31:58.102Z,94.49
2017-07-11T06:32:39.003Z,94.98
2017-07-11T06:33:19.907Z,95.07
2017-07-11T06:34:00.791Z,96.13
2017-07-11T06:34:41.695Z,95.21
2017-07-11T06:35:22.586Z,94.79
2017-07-11T06:36:03.476Z,95.36
2017-07-11T06:36:44.384Z,95.46
2017-07-11T06:37:25.275Z,95.36
2017-07-11T06:38:06.178Z,95.75
2017-07-11T06:38:47.076Z,94.59
2017-07-11T06:39:27.970Z,94.64
2017-07-11T06:40:08.874Z,94.26
2017-07-11T06:40:49.765Z,94.83
2017-07-11T06:41:30.668Z,94.31
2017-07-11T06:42:11.569Z,93.34
2017-07-11T06:42:52.463Z,93.54
2017-07-11T06:43:33.357Z,93.19
2017-07-11T06:44:14.249Z,92.96
2017-07-11T06:44:55.148Z,93.1
2017-07-11T06:45:36.042Z,93.05
2017-07-11T06:46:16.938Z,93.39
2017-07-11T06:46:57.831Z,92
2017-07-11T06:47:38.715Z,92.57
2017-07-11T06:48:19.631Z,93.05
2017-07-11T06:49:00.528Z,93.39
2017-07-11T06:49:41.436Z,93.77
2017-07-11T06:50:22.307Z,93.39
2017-07-11T06:51:03.220Z,92.67
2017-07-11T06:51:44.115Z,92.72
2017-07-11T06:52:25.010Z,91.37
2017-07-11T06:53:05.901Z,91.37
2017-07-11T06:53:46.807Z,91.52
2017-07-11T06:54:27.705Z,92.48
2017-07-11T06:55:08.595Z,92.57
2017-07-11T06:55:49.525Z,92.19
2017-07-11T06:56:30.431Z,92.05
2017-07-11T06:57:11.322Z,92
2017-07-11T06:57:52.228Z,92.1
2017-07-11T06:58:33.112Z,91.56
2017-07-11T06:59:14.003Z,90.99
2017-07-11T06:59:54.899Z,90.8
2017-07-11T07:00:35.799Z,90.17
2017-07-11T07:01:16.691Z,89.78
2017-07-11T07:01:57.583Z,89.15
2017-07-11T07:02:38.464Z,88.71
2017-07-11T07:03:19.360Z,87.18
2017-07-11T07:04:00.250Z,86.99
2017-07-11T07:04:41.131Z,86.85
2017-07-11T07:05:22.031Z,87.42
2017-07-11T07:06:02.932Z,88.67
2017-07-11T07:06:43.830Z,87.9
2017-07-11T07:07:24.720Z,86.3
2017-07-11T07:08:05.622Z,84.81
2017-07-11T07:08:46.521Z,85.05
2017-07-11T07:09:27.415Z,83.36
2017-07-11T07:10:08.320Z,82.59
2017-07-11T07:10:49.213Z,82.64
2017-07-11T07:11:30.106Z,81.24
2017-07-11T07:12:10.999Z,80.41
2017-07-11T07:12:51.902Z,82.7
2017-07-11T07:13:32.810Z,85.16
2017-07-11T07:14:13.706Z,86.94
2017-07-11T07:14:54.588Z,87.81
2017-07-11T07:15:35.484Z,87.71
2017-07-11T07:16:16.385Z,87.08
2017-07-11T07:16:57.286Z,86.16
2017-07-11T07:17:38.193Z,85.49
2017-07-11T07:18:19.094Z,87.13
2017-07-11T07:19:00.012Z,86.9
2017-07-11T07:19:40.913Z,86.9
2017-07-11T07:20:21.813Z,87.29
2017-07-11T07:21:02.705Z,87.13
2017-07-11T07:21:43.607Z,87.57
2017-07-11T07:22:24.505Z,88.73
2017-07-11T07:23:05.392Z,89.11
2017-07-11T07:23:46.300Z,88.73
2017-07-11T07:24:27.195Z,89.07
2017-07-11T07:25:08.084Z,89.59
2017-07-11T07:25:48.984Z,89.01
2017-07-11T07:26:29.862Z,89.36
2017-07-11T07:27:10.749Z,89.88
2017-07-11T07:27:51.653Z,88.57
2017-07-11T07:28:32.560Z,87.13
2017-07-11T07:29:13.450Z,87.08
2017-07-11T07:29:54.344Z,85.39
2017-07-11T07:30:35.246Z,84.91
2017-07-11T07:31:16.146Z,85.14
2017-07-11T07:31:57.029Z,83.36
2017-07-11T07:32:37.913Z,81.9
2017-07-11T07:33:18.814Z,79.29
2017-07-11T07:33:59.698Z,77.11
2017-07-11T07:34:40.604Z,76.24
2017-07-11T07:35:21.488Z,75.85
2017-07-11T07:36:59.900Z,75.79
2017-07-11T07:37:40.807Z,74.1
2017-07-11T07:38:21.709Z,71.68
2017-07-11T07:39:02.605Z,71.58
2017-07-11T07:39:43.511Z,70.9
2017-07-11T07:40:24.415Z,70.81
2017-07-11T07:41:05.308Z,70.81
2017-07-11T07:41:46.206Z,71.51
2017-07-11T07:42:27.103Z,76.51
2017-07-11T07:43:08.008Z,78.73
2017-07-11T07:43:48.900Z,77.13
2017-07-11T07:44:29.797Z,76.26
2017-07-11T07:45:10.682Z,76.1
2017-07-11T07:45:51.607Z,75.34
2017-07-11T07:46:32.503Z,75.62
2017-07-11T07:47:13.402Z,75.05
2017-07-11T07:47:54.322Z,74.54
2017-07-11T07:48:35.221Z,71.97
2017-07-11T07:49:16.119Z,71.14
2017-07-11T07:49:57.024Z,70.23
2017-07-11T07:50:37.905Z,73.21
2017-07-11T07:51:18.810Z,74.88
2017-07-11T07:51:59.715Z,75.01
2017-07-11T07:52:40.614Z,74.08
2017-07-11T07:53:21.532Z,74.62
2017-07-11T07:54:02.425Z,74.72
2017-07-11T07:54:43.322Z,75.36
2017-07-11T07:55:24.213Z,76.13
2017-07-11T07:56:05.124Z,75.4
2017-07-11T07:56:46.029Z,74.76
2017-07-11T07:57:26.921Z,74.21
2017-07-11T07:58:07.831Z,73.32
2017-07-11T07:58:48.737Z,70.01
2017-07-11T07:59:29.673Z,67.53
2017-07-11T08:00:10.578Z,66.17
2017-07-11T08:00:51.488Z,65.5
2017-07-11T08:01:32.404Z,65.17
2017-07-11T08:02:13.310Z,65.95
2017-07-11T08:02:54.219Z,67.24
2017-07-11T08:03:35.127Z,68.2
2017-07-11T08:04:16.045Z,69.32
2017-07-11T08:04:56.966Z,68.2
2017-07-11T08:05:37.882Z,70.26
2017-07-11T08:06:18.803Z,73.02
2017-07-11T08:06:59.715Z,72.38
2017-07-11T08:07:40.620Z,73.44
2017-07-11T08:08:21.520Z,73.99
2017-07-11T08:09:02.424Z,74.02
2017-07-11T08:09:43.325Z,73.06
2017-07-11T08:10:24.220Z,73.79
2017-07-11T08:11:05.125Z,74.18
2017-07-11T08:11:46.038Z,73.93
2017-07-11T08:12:26.958Z,73.25
2017-07-11T08:13:07.878Z,73.54
2017-07-11T08:13:48.776Z,74.41
2017-07-11T08:14:29.689Z,75.78
2017-07-11T08:15:10.586Z,77.19
2017-07-11T08:15:51.513Z,78
2017-07-11T08:16:32.417Z,78.25
2017-07-11T08:17:13.325Z,78.77
2017-07-11T08:17:54.209Z,77.78
2017-07-11T08:18:35.144Z,75.7
2017-07-11T08:19:16.077Z,73.8
2017-07-11T08:19:56.987Z,71.14
2017-07-11T08:20:37.884Z,70.94
2017-07-11T08:21:18.779Z,69.62
2017-07-11T08:21:59.670Z,67.53
2017-07-11T08:22:40.575Z,67.56
2017-07-11T08:23:21.477Z,66.11
2017-07-11T08:24:02.380Z,66.05
2017-07-11T08:24:43.276Z,65.14
2017-07-11T08:25:24.167Z,65.95
2017-07-11T08:26:05.070Z,64.5
2017-07-11T08:26:45.983Z,65.75
2017-07-11T08:27:26.860Z,64.82
2017-07-11T08:28:07.796Z,64.95
2017-07-11T08:28:48.695Z,63.2
2017-07-11T08:29:29.596Z,62.62
2017-07-11T08:30:10.502Z,62.23
2017-07-11T08:30:51.407Z,60.97
2017-07-11T08:31:32.320Z,63.18
2017-07-11T08:32:13.226Z,64.59
2017-07-11T08:32:54.131Z,64.5
2017-07-11T08:33:35.044Z,66.27
2017-07-11T08:34:15.953Z,66.92
2017-07-11T08:34:56.852Z,62.98
2017-07-11T08:35:37.753Z,63.27
2017-07-11T08:36:18.655Z,68.33
2017-07-11T08:36:59.583Z,66.75
2017-07-11T08:37:40.463Z,63.24
2017-07-11T08:38:21.400Z,62.95
2017-07-11T08:39:02.292Z,62.75
2017-07-11T08:39:43.198Z,64.47
2017-07-11T08:40:24.111Z,65.3
2017-07-11T08:41:05.024Z,67.53
2017-07-11T08:41:45.960Z,67.98
2017-07-11T08:42:26.863Z,67.33
2017-07-11T08:43:07.778Z,65.66
2017-07-11T08:43:48.673Z,64.56
2017-07-11T08:44:29.581Z,61.71
2017-07-11T08:45:10.481Z,61.04
2017-07-11T08:45:51.380Z,61.95
2017-07-11T08:46:32.290Z,66.59
2017-07-11T08:47:13.185Z,69.87
2017-07-11T08:47:54.085Z,72.64
2017-07-11T08:48:34.987Z,70.48
2017-07-11T08:49:15.881Z,71.16
2017-07-11T08:49:56.781Z,70.62
2017-07-11T08:50:37.703Z,69.53